Airfield :
LOGIN :

Register | Disclaimer

   EN    FR    IT 

 










Legend :    VFR   Marginal VFR   IFR   Intensive IFR   Very Intensive IFR
Visi :
Ceiling :
>= 8 km
>= 3000ft
5 to 8 km
1000 to 3000 ft
1500m to 5 km
500 to 1000 ft
800 to 1500m
200 to 500 ft
< 800m
< 200 ft
Symbols :   Thunderstorms  Fog  Heavy snow  Heavy precipitations  Wind > 20 kt
SIGMETs :     Misc.  Thunderstorms  Icing  Turbulence  Mountain Waves  Volcanic Ashes






- Airport Elevation : 327 ft
- IATA code : BHX


EGBB - Birmingham

CURRENT METAR :
  • 080220Z 20013KT 170V230 9999 OVC008 10/09 Q0996

EXPIRED METARs :
  • 080150Z 20014G24KT 9999 OVC009 10/09 Q0996
  • 080050Z 20018G29KT 170V240 9999 -RA BKN011 10/09 Q0997 RERA
  • 080020Z 20014G24KT 170V240 6000 RA OVC011 10/08 Q0999
  • 072350Z 20016G30KT 170V230 9999 -RA OVC012 10/08 Q1000

TAF TAF EGBB
Valid from the 08 at 00:00 until the 09 at 00:00 UTC


072301Z 0800/0824 20020KT 9999 -RA BKN012
TEMPO 0800/0804 21023G38KT 6000 RA BKN018
PROB30
TEMPO 0800/0804 4000 +RA RADZ BKN009
BECMG 0804/0807 26014KT NSW SCT025
TEMPO 0807/0820 26020G30KT 7000 SHRA
TEMPO 0820/0824 21020G30KT 7000 SHRA BKN014
PROB30
TEMPO 0821/0824 4000 +SHRA
ATIS : +44 121 780 0910



MET'MAP, your aeronautical weather chart ! - Copyright ORBIFLY December 2007 - Disclaimer

ORBIFLY MET'MAP TEAM :

Programming & Development : Alexandra Zaïnal
Concept & original design : Baudouin d'Aumeries
Assistance for programming : Marc-Olivier Méhu
Technical & hardware support : Manuel Goepfert

Contact : metmap@orbifly.com




SOURCES & CREDITS :

   NOAA